Time;durP1;ratioP1;P1;durP2;ratioP2;P2;SDS_P1;SDS_P2;PMS_P1;PMS_P2;Temp;Humidity;BMP_temperature;BMP_pressure;BME280_temperature;BME280_humidity;BME280_pressure;Samples;Min_cycle;Max_cycle;Signal;HPM_P1;HPM_P2
2022/03/14 00:01:47;;;;;;;13.43;9.20;;;8.90;57.60;;;;;;5104452;28;20119;-65
2022/03/14 00:04:13;;;;;;;14.75;9.43;;;8.80;58.40;;;;;;5104337;28;20530;-64
2022/03/14 00:06:39;;;;;;;17.85;9.93;;;8.90;59.00;;;;;;5103921;28;20047;-65
2022/03/14 00:09:07;;;;;;;19.58;9.45;;;8.80;59.10;;;;;;5104624;28;20496;-64
2022/03/14 00:11:35;;;;;;;16.67;10.55;;;8.80;59.60;;;;;;5103870;28;20048;-64
2022/03/14 00:14:08;;;;;;;12.90;9.50;;;8.80;60.30;;;;;;5104619;28;20052;-64
2022/03/14 00:16:46;;;;;;;14.43;9.82;;;8.70;60.80;;;;;;5104193;28;20047;-64
2022/03/14 00:19:13;;;;;;;16.73;10.35;;;8.60;61.20;;;;;;5104374;28;20139;-66
2022/03/14 00:21:40;;;;;;;17.45;11.25;;;8.50;62.20;;;;;;5103700;28;20044;-65
2022/03/14 00:24:08;;;;;;;16.60;10.82;;;8.50;62.70;;;;;;5104179;28;20048;-64
2022/03/14 00:26:34;;;;;;;17.40;11.23;;;8.40;63.70;;;;;;5103976;28;20051;-65
2022/03/14 00:29:00;;;;;;;16.25;9.93;;;8.40;64.10;;;;;;5104433;28;20047;-64
2022/03/14 00:31:26;;;;;;;14.38;9.60;;;8.50;64.70;;;;;;5104103;28;20047;-65
2022/03/14 00:33:52;;;;;;;16.75;10.73;;;8.40;65.10;;;;;;5104241;28;20420;-64
2022/03/14 00:36:19;;;;;;;16.85;10.77;;;8.50;65.00;;;;;;5103860;28;20054;-64
2022/03/14 00:38:46;;;;;;;16.70;10.82;;;8.60;66.00;;;;;;5104223;28;20055;-65
2022/03/14 00:41:16;;;;;;;16.27;11.18;;;8.50;65.40;;;;;;5103719;28;20052;-65
2022/03/14 00:43:42;;;;;;;16.15;10.88;;;8.60;66.90;;;;;;5104066;28;20048;-64
2022/03/14 00:46:07;;;;;;;17.42;10.25;;;8.80;66.80;;;;;;5103919;28;20132;-64
2022/03/14 00:48:35;;;;;;;18.13;9.90;;;8.80;66.70;;;;;;5103902;28;20075;-65
2022/03/14 00:51:02;;;;;;;;;;;8.90;67.90;;;;;;5103951;28;20052;-65
2022/03/14 00:53:28;;;;;;;16.35;9.50;;;8.80;68.30;;;;;;5104017;28;19920;-64
2022/03/14 00:55:54;;;;;;;17.50;9.75;;;9.00;68.50;;;;;;5103738;28;20074;-64
2022/03/14 00:58:19;;;;;;;17.77;10.57;;;9.10;69.70;;;;;;5104016;28;20043;-64
2022/03/14 01:00:48;;;;;;;13.35;9.50;;;9.10;71.10;;;;;;5105945;28;20040;-64
2022/03/14 01:03:14;;;;;;;13.48;9.45;;;9.30;72.70;;;;;;5107703;28;20050;-64
2022/03/14 01:05:39;;;;;;;14.93;10.45;;;9.40;73.00;;;;;;5107516;28;20091;-65
2022/03/14 01:08:06;;;;;;;15.95;9.55;;;9.40;73.90;;;;;;5107479;28;20051;-65
2022/03/14 01:10:32;;;;;;;14.35;9.07;;;9.40;76.30;;;;;;5107274;28;20058;-64
2022/03/14 01:12:58;;;;;;;13.65;9.55;;;9.50;77.60;;;;;;5107617;28;20036;-64
2022/03/14 01:15:24;;;;;;;14.35;9.73;;;9.60;80.50;;;;;;5107532;28;20071;-64
2022/03/14 01:17:50;;;;;;;13.32;9.07;;;9.70;83.10;;;;;;5107533;28;20036;-64
2022/03/14 01:20:16;;;;;;;14.23;10.30;;;9.80;82.90;;;;;;5107632;28;20112;-64
2022/03/14 01:22:43;;;;;;;17.33;10.00;;;9.80;83.10;;;;;;5106678;28;20103;-64
2022/03/14 01:25:09;;;;;;;;;;;9.80;84.00;;;;;;5107419;28;20048;-64
2022/03/14 01:27:35;;;;;;;13.82;8.95;;;9.80;86.80;;;;;;5107379;28;19920;-65
2022/03/14 01:30:00;;;;;;;15.88;8.70;;;9.80;86.30;;;;;;5107394;28;20181;-64
2022/03/14 01:32:26;;;;;;;12.82;9.15;;;9.80;86.80;;;;;;5107315;28;20051;-65
2022/03/14 01:34:52;;;;;;;17.27;10.15;;;9.80;87.10;;;;;;5107104;28;20052;-64
2022/03/14 01:37:18;;;;;;;14.70;9.32;;;9.80;90.50;;;;;;5106563;28;20093;-64
2022/03/14 01:39:44;;;;;;;15.98;10.15;;;9.80;89.10;;;;;;5106748;28;20063;-64
2022/03/14 01:42:18;;;;;;;16.15;9.27;;;9.80;91.60;;;;;;5106991;28;20115;-64
2022/03/14 01:44:46;;;;;;;13.68;9.98;;;9.90;91.90;;;;;;5106861;28;20040;-64
2022/03/14 01:47:13;;;;;;;13.23;9.27;;;9.80;91.30;;;;;;5106905;28;20059;-64
2022/03/14 01:49:39;;;;;;;13.10;10.05;;;9.70;91.00;;;;;;5106927;28;20100;-65
2022/03/14 01:52:07;;;;;;;15.45;9.02;;;9.70;92.00;;;;;;5106003;28;20123;-65
2022/03/14 01:54:34;;;;;;;14.93;9.35;;;9.60;92.40;;;;;;5106826;28;20055;-65
2022/03/14 01:56:59;;;;;;;13.20;10.00;;;9.70;92.90;;;;;;5106631;28;20097;-65
2022/03/14 01:59:28;;;;;;;14.75;9.90;;;9.70;93.70;;;;;;5106898;28;20048;-65
2022/03/14 02:01:56;;;;;;;12.95;9.25;;;9.70;93.50;;;;;;5106745;28;20040;-65
2022/03/14 02:04:22;;;;;;;13.02;8.88;;;9.70;94.50;;;;;;5106466;28;20048;-65
2022/03/14 02:06:51;;;;;;;12.00;8.65;;;9.70;94.40;;;;;;5105950;28;20106;-65
2022/03/14 02:09:17;;;;;;;13.15;9.43;;;9.70;94.60;;;;;;5106561;28;20048;-64
2022/03/14 02:11:56;;;;;;;13.90;8.85;;;9.70;94.80;;;;;;5105398;28;20052;-64
2022/03/14 02:14:22;;;;;;;;;;;9.60;95.10;;;;;;5107077;28;20044;-64
2022/03/14 02:16:48;;;;;;;13.63;9.07;;;9.60;95.80;;;;;;5106177;28;19920;-64
2022/03/14 02:19:13;;;;;;;11.20;7.97;;;9.50;95.60;;;;;;5106198;28;20040;-64
2022/03/14 02:21:39;;;;;;;11.30;7.40;;;9.50;96.00;;;;;;5105408;28;20052;-64
2022/03/14 02:24:05;;;;;;;13.00;8.63;;;9.50;96.40;;;;;;5106122;28;20044;-64
2022/03/14 02:26:31;;;;;;;13.43;8.18;;;9.50;96.80;;;;;;5104704;28;20076;-64
2022/03/14 02:28:58;;;;;;;11.35;8.05;;;9.40;96.70;;;;;;5106209;28;20044;-64
2022/03/14 02:31:24;;;;;;;12.25;8.18;;;9.50;97.40;;;;;;5106027;28;20047;-64
2022/03/14 02:33:50;;;;;;;12.05;8.40;;;9.50;98.00;;;;;;5105956;28;20047;-64
2022/03/14 02:36:15;;;;;;;12.25;8.50;;;9.40;98.70;;;;;;5105299;28;20079;-64
2022/03/14 02:38:41;;;;;;;13.55;9.45;;;9.50;98.00;;;;;;5104992;28;20139;-64
2022/03/14 02:41:07;;;;;;;12.45;8.45;;;9.60;98.40;;;;;;5105165;28;20118;-64
2022/03/14 02:43:35;;;;;;;14.80;8.73;;;9.60;98.40;;;;;;5088885;28;20055;-64
2022/03/14 02:46:00;;;;;;;13.23;8.20;;;9.70;98.20;;;;;;5085447;28;20076;-66
2022/03/14 02:48:26;;;;;;;15.38;9.82;;;9.60;97.90;;;;;;5085087;28;20063;-64
2022/03/14 02:50:53;;;;;;;13.70;8.50;;;9.60;97.90;;;;;;5085131;28;20052;-66
2022/03/14 02:53:19;;;;;;;12.90;9.07;;;9.60;99.10;;;;;;5085436;28;20055;-66
2022/03/14 02:55:45;;;;;;;16.95;7.50;;;9.60;99.80;;;;;;5084938;28;20049;-64
2022/03/14 02:58:11;;;;;;;10.95;7.35;;;9.70;99.20;;;;;;5085207;28;20136;-64
2022/03/14 03:00:37;;;;;;;10.20;8.20;;;9.70;99.60;;;;;;5085181;28;20047;-65
2022/03/14 03:03:05;;;;;;;10.57;7.97;;;9.70;99.30;;;;;;5085405;28;20423;-65
2022/03/14 03:05:32;;;;;;;11.25;8.43;;;9.80;99.20;;;;;;5085078;28;20539;-65
2022/03/14 03:08:03;;;;;;;10.25;7.82;;;9.70;99.90;;;;;;5084527;28;20048;-64
2022/03/14 03:10:29;;;;;;;11.18;7.32;;;9.70;99.60;;;;;;5084564;28;20058;-64
2022/03/14 03:12:55;;;;;;;15.75;8.35;;;9.70;99.80;;;;;;5084962;28;20064;-64
2022/03/14 03:15:22;;;;;;;11.65;7.95;;;9.70;99.70;;;;;;5085022;28;20052;-64
2022/03/14 03:17:47;;;;;;;14.35;7.15;;;9.70;99.70;;;;;;5084994;28;20056;-64
2022/03/14 03:20:14;;;;;;;14.23;7.80;;;9.60;99.90;;;;;;5084691;28;20040;-64
2022/03/14 03:22:40;;;;;;;8.20;6.78;;;9.60;99.90;;;;;;5084059;28;20052;-64
2022/03/14 03:25:07;;;;;;;11.23;7.78;;;9.70;99.90;;;;;;5084560;28;20059;-65
2022/03/14 03:27:32;;;;;;;12.30;7.90;;;9.70;99.90;;;;;;5084643;28;20078;-64
2022/03/14 03:30:03;;;;;;;13.13;7.45;;;9.70;99.90;;;;;;5084955;28;20037;-64
2022/03/14 03:32:29;;;;;;;9.05;7.15;;;9.70;99.90;;;;;;5104712;28;20059;-64
2022/03/14 03:34:54;;;;;;;9.07;6.47;;;9.70;99.90;;;;;;5104699;28;20040;-64
2022/03/14 03:37:20;;;;;;;9.65;7.10;;;9.80;99.90;;;;;;5104382;28;20036;-65
2022/03/14 03:39:46;;;;;;;10.18;7.53;;;9.80;99.90;;;;;;5104688;28;20044;-64
2022/03/14 03:42:12;;;;;;;7.93;6.55;;;9.80;99.90;;;;;;5104896;28;20487;-64
2022/03/14 03:44:37;;;;;;;8.88;6.60;;;9.80;99.90;;;;;;5104797;28;20068;-64
2022/03/14 03:47:04;;;;;;;8.70;6.85;;;9.70;99.90;;;;;;5104347;28;20048;-64
2022/03/14 03:49:30;;;;;;;11.25;6.97;;;9.70;99.90;;;;;;5104715;28;20110;-64
2022/03/14 03:51:56;;;;;;;11.77;8.57;;;9.70;99.90;;;;;;5104045;28;20078;-64
2022/03/14 03:54:22;;;;;;;10.52;8.43;;;9.60;99.90;;;;;;5104847;28;20043;-64
2022/03/14 03:56:48;;;;;;;11.85;8.95;;;9.50;99.90;;;;;;5104062;28;20036;-64
2022/03/14 03:59:15;;;;;;;13.75;10.07;;;9.40;99.90;;;;;;5104647;28;20040;-64
2022/03/14 04:01:41;;;;;;;14.13;9.13;;;9.30;99.90;;;;;;5104480;28;20395;-64
2022/03/14 04:04:07;;;;;;;12.60;8.45;;;9.20;99.90;;;;;;5104410;28;20400;-64
2022/03/14 04:06:35;;;;;;;12.95;9.13;;;9.10;99.90;;;;;;5104071;28;20040;-64
2022/03/14 04:09:03;;;;;;;13.85;8.38;;;9.10;99.90;;;;;;5104730;28;20169;-64
2022/03/14 04:11:29;;;;;;;13.38;8.18;;;9.10;99.90;;;;;;5104104;28;20044;-64
2022/03/14 04:13:58;;;;;;;11.02;7.80;;;9.00;99.90;;;;;;5104574;28;20484;-64
2022/03/14 04:16:26;;;;;;;10.85;8.30;;;9.00;99.90;;;;;;5104243;28;20032;-64
2022/03/14 04:18:53;;;;;;;12.88;8.23;;;8.90;99.90;;;;;;5104319;28;20040;-63
2022/03/14 04:21:20;;;;;;;13.95;8.50;;;8.90;99.90;;;;;;5103676;28;20048;-64
2022/03/14 04:23:46;;;;;;;10.65;7.65;;;8.90;99.90;;;;;;5104426;28;20047;-64
2022/03/14 04:26:12;;;;;;;10.50;8.18;;;8.90;99.90;;;;;;5103930;28;20055;-64
2022/03/14 04:28:40;;;;;;;10.68;8.35;;;8.80;99.90;;;;;;5104382;28;20044;-64
2022/03/14 04:31:07;;;;;;;10.65;7.85;;;8.90;99.90;;;;;;5103971;28;20051;-64
2022/03/14 04:33:33;;;;;;;11.60;8.10;;;8.90;99.90;;;;;;5104443;28;20121;-64
2022/03/14 04:35:59;;;;;;;12.02;8.75;;;8.90;99.90;;;;;;5106447;28;20040;-64
2022/03/14 04:38:29;;;;;;;11.00;7.47;;;8.90;99.90;;;;;;5108216;28;20539;-64
2022/03/14 04:40:56;;;;;;;8.88;7.40;;;8.90;99.90;;;;;;5107791;28;20037;-64
2022/03/14 04:43:22;;;;;;;10.13;7.03;;;9.00;99.90;;;;;;5108072;28;20047;-64
2022/03/14 04:45:49;;;;;;;9.00;6.50;;;8.90;99.90;;;;;;5108041;28;20044;-64
2022/03/14 04:48:15;;;;;;;12.10;7.45;;;9.00;99.90;;;;;;5108051;28;20131;-64
2022/03/14 04:50:42;;;;;;;9.02;7.18;;;8.90;99.90;;;;;;5108020;28;20068;-64
2022/03/14 04:53:09;;;;;;;9.48;7.18;;;8.90;99.90;;;;;;5107489;28;20044;-64
2022/03/14 04:55:35;;;;;;;11.77;7.25;;;8.90;99.90;;;;;;5107729;28;20123;-64
2022/03/14 04:58:04;;;;;;;8.82;6.55;;;8.90;99.90;;;;;;5107811;28;20241;-65
2022/03/14 05:00:30;;;;;;;9.27;7.20;;;8.90;99.90;;;;;;5106566;28;20055;-63
2022/03/14 05:03:00;;;;;;;10.93;7.28;;;8.80;99.90;;;;;;5107601;28;20036;-64
2022/03/14 05:05:26;;;;;;;8.75;6.32;;;8.90;99.90;;;;;;5107736;28;20052;-64
2022/03/14 05:07:52;;;;;;;11.35;6.63;;;8.90;99.90;;;;;;5107241;28;20044;-64
2022/03/14 05:10:18;;;;;;;9.73;7.20;;;8.90;99.90;;;;;;5107112;28;20373;-64
2022/03/14 05:12:43;;;;;;;11.95;7.63;;;8.90;99.90;;;;;;5107879;28;20041;-64
2022/03/14 05:15:09;;;;;;;12.10;7.30;;;8.90;99.90;;;;;;5107308;28;20514;-65
2022/03/14 05:17:35;;;;;;;9.98;7.40;;;8.90;99.90;;;;;;5107335;28;20563;-64
2022/03/14 05:20:02;;;;;;;8.93;6.78;;;8.90;99.90;;;;;;5107387;28;20040;-64
2022/03/14 05:22:28;;;;;;;9.45;6.60;;;8.80;99.90;;;;;;5106683;28;20044;-63
2022/03/14 05:24:54;;;;;;;9.18;6.53;;;8.80;99.90;;;;;;5107225;28;20086;-64
2022/03/14 05:27:19;;;;;;;7.63;5.78;;;8.80;99.90;;;;;;5107286;28;20052;-63
2022/03/14 05:29:45;;;;;;;9.80;6.75;;;8.90;99.90;;;;;;5107102;28;20077;-64
2022/03/14 05:32:11;;;;;;;7.45;5.80;;;8.80;99.90;;;;;;5106966;28;20054;-64
2022/03/14 05:34:37;;;;;;;8.23;6.15;;;8.80;99.90;;;;;;5107026;28;20383;-63
2022/03/14 05:37:03;;;;;;;8.05;5.72;;;8.80;99.90;;;;;;5106643;28;20070;-64
2022/03/14 05:39:28;;;;;;;7.63;6.07;;;8.90;99.90;;;;;;5106762;28;20119;-64
2022/03/14 05:41:55;;;;;;;6.50;5.13;;;8.90;99.90;;;;;;5106208;28;20043;-64
2022/03/14 05:44:21;;;;;;;7.43;5.05;;;8.90;99.90;;;;;;5106709;28;20055;-64
2022/03/14 05:46:47;;;;;;;5.57;4.45;;;8.90;99.90;;;;;;5105419;28;20467;-64
2022/03/14 05:49:12;;;;;;;5.25;4.35;;;8.90;99.90;;;;;;5106769;28;20068;-64
2022/03/14 05:51:39;;;;;;;6.00;4.65;;;9.00;99.90;;;;;;5106530;28;20036;-65
2022/03/14 05:54:05;;;;;;;5.30;4.05;;;9.00;99.90;;;;;;5106869;28;20051;-64
2022/03/14 05:56:31;;;;;;;5.75;4.47;;;9.10;99.90;;;;;;5106283;28;20106;-64
2022/03/14 05:58:58;;;;;;;6.35;4.40;;;9.10;99.90;;;;;;5106457;28;20051;-64
2022/03/14 06:01:23;;;;;;;6.68;4.70;;;9.10;99.90;;;;;;5106206;28;20044;-64
2022/03/14 06:03:50;;;;;;;6.60;4.20;;;9.00;99.90;;;;;;5106577;28;20079;-64
2022/03/14 06:06:16;;;;;;;6.90;4.00;;;9.10;99.90;;;;;;5105772;28;20051;-63
2022/03/14 06:08:41;;;;;;;6.25;3.45;;;9.10;99.90;;;;;;5106231;28;20052;-63
2022/03/14 06:11:08;;;;;;;6.20;4.40;;;9.10;99.90;;;;;;5105994;28;20051;-63
2022/03/14 06:13:34;;;;;;;6.18;3.58;;;9.10;99.90;;;;;;5106167;28;20099;-63
2022/03/14 06:15:59;;;;;;;6.00;3.80;;;9.20;99.90;;;;;;5106446;28;20043;-64
2022/03/14 06:18:25;;;;;;;5.40;3.85;;;9.10;99.90;;;;;;5106277;28;20048;-64
2022/03/14 06:20:51;;;;;;;4.47;3.45;;;9.10;99.90;;;;;;5138584;27;20051;-63
2022/03/14 06:23:17;;;;;;;5.72;3.97;;;9.10;99.90;;;;;;5105997;28;20165;-63
2022/03/14 06:25:43;;;;;;;4.28;3.72;;;9.10;99.90;;;;;;5105832;28;20037;-64
2022/03/14 06:28:09;;;;;;;4.28;3.45;;;9.10;99.90;;;;;;5105900;28;20072;-64
2022/03/14 06:30:35;;;;;;;5.03;4.07;;;9.20;99.90;;;;;;5105787;28;20047;-64
2022/03/14 06:33:00;;;;;;;5.38;3.97;;;9.10;99.90;;;;;;5105840;28;20102;-63
2022/03/14 06:35:26;;;;;;;4.13;3.38;;;9.20;99.90;;;;;;5105783;28;20043;-63
2022/03/14 06:37:52;;;;;;;4.57;3.40;;;9.10;99.90;;;;;;5105581;28;20040;-64
2022/03/14 06:40:18;;;;;;;4.97;3.95;;;9.20;99.90;;;;;;5105868;28;20044;-64
2022/03/14 06:42:49;;;;;;;3.95;3.38;;;9.20;99.90;;;;;;5105418;28;20043;-64
2022/03/14 06:45:21;;;;;;;6.28;3.85;;;9.20;99.90;;;;;;5105796;28;20040;-64
2022/03/14 06:47:47;;;;;;;4.45;3.78;;;9.30;99.90;;;;;;5103949;28;20063;-64
2022/03/14 06:50:13;;;;;;;5.20;3.85;;;9.30;99.90;;;;;;5105644;28;20051;-64
2022/03/14 06:52:39;;;;;;;6.90;4.60;;;9.20;99.90;;;;;;5104854;28;20044;-64
2022/03/14 06:55:05;;;;;;;5.20;4.20;;;9.20;99.90;;;;;;5105635;28;20127;-64
2022/03/14 06:57:31;;;;;;;6.50;4.72;;;9.20;99.90;;;;;;5105092;28;20044;-64
2022/03/14 06:59:57;;;;;;;5.50;4.20;;;9.20;99.90;;;;;;5105597;28;20043;-63
2022/03/14 07:02:29;;;;;;;5.28;3.90;;;9.20;99.90;;;;;;5105481;28;20131;-64
2022/03/14 07:04:55;;;;;;;4.95;4.30;;;9.20;99.90;;;;;;5105361;28;20047;-63
2022/03/14 07:07:20;;;;;;;6.38;4.80;;;9.20;99.90;;;;;;5104743;28;20040;-64
2022/03/14 07:09:46;;;;;;;6.60;4.65;;;9.10;99.90;;;;;;5105339;28;20048;-63
2022/03/14 07:12:12;;;;;;;6.43;4.55;;;9.10;99.90;;;;;;5104674;28;20048;-63
2022/03/14 07:14:38;;;;;;;5.75;4.22;;;9.10;99.90;;;;;;5105115;28;20578;-63
2022/03/14 07:17:04;;;;;;;7.90;5.07;;;9.10;99.90;;;;;;5104987;28;20073;-63
2022/03/14 07:19:30;;;;;;;7.88;4.40;;;9.10;99.90;;;;;;5105225;28;20052;-63
2022/03/14 07:21:56;;;;;;;6.50;4.45;;;9.10;99.90;;;;;;5104402;28;20111;-64
2022/03/14 07:24:21;;;;;;;5.90;4.78;;;9.10;99.90;;;;;;5103580;28;20048;-63
2022/03/14 07:26:47;;;;;;;6.60;4.75;;;9.10;99.90;;;;;;5104688;28;20439;-63
2022/03/14 07:29:14;;;;;;;8.15;4.63;;;9.10;99.90;;;;;;5104608;28;20044;-63
2022/03/14 07:31:41;;;;;;;8.55;4.72;;;9.10;99.90;;;;;;5104919;28;20173;-63
2022/03/14 07:34:08;;;;;;;6.18;5.07;;;9.10;99.90;;;;;;5104630;28;20595;-63
2022/03/14 07:36:34;;;;;;;6.93;5.10;;;9.10;99.90;;;;;;5104035;28;20510;-63
2022/03/14 07:39:04;;;;;;;6.03;4.78;;;9.20;99.90;;;;;;5104761;28;20523;-64
2022/03/14 07:41:30;;;;;;;6.30;5.15;;;9.20;99.90;;;;;;5104353;28;20052;-64
2022/03/14 07:44:00;;;;;;;6.97;5.78;;;9.20;99.90;;;;;;5104829;28;20105;-64
2022/03/14 07:46:26;;;;;;;17.80;5.50;;;9.20;99.90;;;;;;5104813;28;20091;-64
2022/03/14 07:48:52;;;;;;;7.88;4.68;;;9.20;99.90;;;;;;5104425;28;20059;-64
2022/03/14 07:51:18;;;;;;;7.15;5.78;;;9.20;99.90;;;;;;5104090;28;20040;-63
2022/03/14 07:53:43;;;;;;;6.82;5.38;;;9.20;99.90;;;;;;5103385;28;20078;-63
2022/03/14 07:56:11;;;;;;;8.10;5.32;;;9.20;99.90;;;;;;5103035;28;20036;-64
2022/03/14 07:58:37;;;;;;;5.47;4.57;;;9.20;99.90;;;;;;5104752;28;20069;-64
2022/03/14 08:01:03;;;;;;;8.50;6.10;;;9.20;99.90;;;;;;5104382;28;20051;-64
2022/03/14 08:03:29;;;;;;;8.82;6.00;;;9.20;99.90;;;;;;5104349;28;20559;-67
2022/03/14 08:05:58;;;;;;;7.43;6.32;;;9.10;99.90;;;;;;5103935;28;20040;-64
2022/03/14 08:08:25;;;;;;;7.22;5.63;;;9.10;99.90;;;;;;5104475;28;20082;-64
2022/03/14 08:10:50;;;;;;;7.82;5.80;;;9.10;99.90;;;;;;5102231;28;20052;-63
2022/03/14 08:13:16;;;;;;;7.20;5.65;;;9.10;99.90;;;;;;5104428;28;20048;-64
2022/03/14 08:15:42;;;;;;;6.88;5.40;;;9.20;99.90;;;;;;5104338;28;20074;-64
2022/03/14 08:18:09;;;;;;;6.88;5.97;;;9.20;99.90;;;;;;5104289;28;20047;-64
2022/03/14 08:20:37;;;;;;;7.78;6.10;;;9.20;99.90;;;;;;5104309;28;20051;-65
2022/03/14 08:23:03;;;;;;;7.13;5.68;;;9.30;99.90;;;;;;5103524;28;20096;-65
2022/03/14 08:25:30;;;;;;;6.55;5.60;;;9.30;99.90;;;;;;5104241;28;20042;-64
2022/03/14 08:27:56;;;;;;;6.50;5.80;;;9.30;99.90;;;;;;5104294;28;20116;-64
2022/03/14 08:30:22;;;;;;;8.45;5.60;;;9.40;99.90;;;;;;5104130;28;20048;-64
2022/03/14 08:32:49;;;;;;;8.88;6.57;;;9.40;99.90;;;;;;5104257;28;20454;-64
2022/03/14 08:35:19;;;;;;;6.40;5.50;;;9.40;99.90;;;;;;5104333;28;20044;-64
2022/03/14 08:37:45;;;;;;;8.65;6.30;;;9.40;99.90;;;;;;5103836;28;20076;-64
2022/03/14 08:40:15;;;;;;;7.88;5.63;;;9.50;99.90;;;;;;5103895;28;20048;-64
2022/03/14 08:42:42;;;;;;;7.28;6.18;;;9.50;99.90;;;;;;5104109;28;20071;-64
2022/03/14 08:45:09;;;;;;;7.57;5.72;;;9.50;99.90;;;;;;5104218;28;20044;-64
2022/03/14 08:47:36;;;;;;;7.05;5.50;;;9.50;99.90;;;;;;5103838;28;20052;-64
2022/03/14 08:50:04;;;;;;;7.57;5.97;;;9.50;99.90;;;;;;5104214;28;20107;-64
2022/03/14 08:52:30;;;;;;;7.68;6.28;;;9.50;99.90;;;;;;5103285;28;20078;-64
2022/03/14 08:54:57;;;;;;;6.68;5.63;;;9.50;99.90;;;;;;5103901;28;20100;-64
2022/03/14 08:57:24;;;;;;;6.72;6.00;;;9.50;99.90;;;;;;5103919;28;20051;-64
2022/03/14 08:59:50;;;;;;;6.95;6.13;;;9.60;99.90;;;;;;5102766;28;20036;-64
2022/03/14 09:02:16;;;;;;;8.10;6.15;;;9.50;99.90;;;;;;5103856;28;20123;-64
2022/03/14 09:04:42;;;;;;;8.48;6.10;;;9.60;99.90;;;;;;5104057;28;20059;-64
2022/03/14 09:07:08;;;;;;;9.02;6.60;;;9.60;99.90;;;;;;5103229;28;20044;-63
2022/03/14 09:09:34;;;;;;;8.63;7.00;;;9.60;99.90;;;;;;5103835;28;20135;-64
2022/03/14 09:12:00;;;;;;;7.00;6.03;;;9.50;99.90;;;;;;5103471;28;20526;-64
2022/03/14 09:14:27;;;;;;;7.47;6.40;;;9.60;99.90;;;;;;5103726;28;20099;-63
2022/03/14 09:16:53;;;;;;;9.27;6.38;;;9.60;99.90;;;;;;5103992;28;20043;-64
2022/03/14 09:19:18;;;;;;;8.20;6.43;;;9.60;99.90;;;;;;5103611;28;20040;-65
2022/03/14 09:21:46;;;;;;;8.65;7.53;;;9.60;99.90;;;;;;5104768;28;20055;-64
2022/03/14 09:24:11;;;;;;;10.27;7.15;;;9.60;99.90;;;;;;5106062;28;20056;-64
2022/03/14 09:26:37;;;;;;;8.88;6.80;;;9.70;99.90;;;;;;5105751;28;20048;-63
2022/03/14 09:29:04;;;;;;;9.38;7.45;;;9.70;99.90;;;;;;5107246;28;20068;-63
2022/03/14 09:31:30;;;;;;;9.27;7.15;;;9.80;99.90;;;;;;5107134;28;20074;-64
2022/03/14 09:33:56;;;;;;;11.50;7.13;;;9.70;99.90;;;;;;5106996;28;20044;-63
2022/03/14 09:36:23;;;;;;;9.77;7.85;;;9.80;99.90;;;;;;5106573;28;20419;-64
2022/03/14 09:38:48;;;;;;;9.77;7.43;;;9.80;99.90;;;;;;5106051;28;20024;-64
2022/03/14 09:41:18;;;;;;;15.88;8.02;;;9.80;99.90;;;;;;5105360;28;20550;-64
2022/03/14 09:43:47;;;;;;;9.95;7.80;;;9.70;99.90;;;;;;5107106;28;20052;-64
2022/03/14 09:46:13;;;;;;;8.48;6.85;;;9.80;99.90;;;;;;5106980;28;20051;-65
2022/03/14 09:48:52;;;;;;;10.18;7.90;;;9.80;99.90;;;;;;5106809;28;20055;-64
2022/03/14 09:51:18;;;;;;;8.82;7.53;;;9.80;99.90;;;;;;5106335;28;20094;-64
2022/03/14 09:53:44;;;;;;;12.32;8.27;;;9.80;99.90;;;;;;5106894;28;20462;-64
2022/03/14 09:56:10;;;;;;;9.77;8.40;;;9.80;99.90;;;;;;5106724;28;20058;-64
2022/03/14 09:58:38;;;;;;;12.00;8.93;;;9.80;99.90;;;;;;5106618;28;20043;-63
2022/03/14 10:01:04;;;;;;;13.75;9.07;;;9.70;99.90;;;;;;5105265;28;20054;-64
2022/03/14 10:03:31;;;;;;;10.75;8.93;;;9.80;99.90;;;;;;5106553;28;20060;-64
2022/03/14 10:05:56;;;;;;;11.52;8.15;;;9.70;99.90;;;;;;5106016;28;20121;-64
2022/03/14 10:08:25;;;;;;;9.70;8.57;;;9.70;99.90;;;;;;5106921;28;20499;-64
2022/03/14 10:10:51;;;;;;;12.32;9.40;;;9.70;99.90;;;;;;5106024;28;20056;-64
2022/03/14 10:13:16;;;;;;;11.13;8.70;;;9.50;99.90;;;;;;5105361;28;20040;-64
2022/03/14 10:15:43;;;;;;;15.90;11.50;;;9.50;99.90;;;;;;5104963;28;20079;-64
2022/03/14 10:18:17;;;;;;;21.48;11.77;;;9.40;99.90;;;;;;5104902;28;20043;-65
2022/03/14 10:20:58;;;;;;;19.60;13.30;;;9.30;99.90;;;;;;5106268;28;20059;-65
2022/03/14 10:23:43;;;;;;;24.90;16.25;;;9.10;99.90;;;;;;5106212;28;20044;-65
2022/03/14 10:26:16;;;;;;;25.80;16.65;;;9.00;99.90;;;;;;5106033;28;20575;-65
2022/03/14 10:28:48;;;;;;;26.73;17.58;;;9.00;99.90;;;;;;5104606;28;20080;-66
2022/03/14 10:31:14;;;;;;;24.60;15.05;;;8.80;99.90;;;;;;5105969;28;20052;-66
2022/03/14 10:33:40;;;;;;;41.15;20.88;;;8.80;99.90;;;;;;5105280;28;20051;-66
2022/03/14 10:36:07;;;;;;;32.45;19.55;;;8.80;99.90;;;;;;5105308;28;20036;-66
2022/03/14 10:38:42;;;;;;;36.20;19.33;;;8.80;99.90;;;;;;5105822;28;20071;-66
2022/03/14 10:41:17;;;;;;;24.77;15.07;;;8.90;99.90;;;;;;5105533;28;20063;-66
2022/03/14 10:43:43;;;;;;;34.80;17.35;;;8.90;99.90;;;;;;5105678;28;20048;-66
2022/03/14 10:46:09;;;;;;;26.13;15.07;;;9.00;99.90;;;;;;5105516;28;20075;-65
2022/03/14 10:48:38;;;;;;;24.55;13.18;;;9.00;99.90;;;;;;5105552;28;20060;-66
2022/03/14 10:51:11;;;;;;;25.17;13.73;;;9.00;99.90;;;;;;5104892;28;20044;-66
2022/03/14 10:53:45;;;;;;;21.30;12.32;;;9.10;99.90;;;;;;5105608;28;20043;-65
2022/03/14 10:56:11;;;;;;;26.20;13.93;;;9.10;99.90;;;;;;5105157;28;20044;-64
2022/03/14 10:58:38;;;;;;;24.38;12.75;;;9.10;99.90;;;;;;5105462;28;20059;-66
2022/03/14 11:01:08;;;;;;;22.45;12.52;;;9.10;99.90;;;;;;5105361;28;20078;-66
2022/03/14 11:03:39;;;;;;;27.02;12.07;;;9.10;99.90;;;;;;5105165;28;20415;-65
2022/03/14 11:06:13;;;;;;;23.60;11.20;;;9.10;99.90;;;;;;5104686;28;20036;-64
2022/03/14 11:08:44;;;;;;;25.13;11.10;;;9.10;99.90;;;;;;5105483;28;20458;-65
2022/03/14 11:11:12;;;;;;;27.55;11.65;;;9.10;99.90;;;;;;5104711;28;20068;-64
2022/03/14 11:13:40;;;;;;;21.20;9.88;;;9.10;99.90;;;;;;5105049;28;20050;-65
2022/03/14 11:16:20;;;;;;;21.70;9.75;;;9.10;99.90;;;;;;5105057;28;20051;-65
2022/03/14 11:18:47;;;;;;;20.90;10.40;;;9.10;99.90;;;;;;5104959;28;20055;-65
2022/03/14 11:21:14;;;;;;;23.77;9.30;;;9.10;99.90;;;;;;5104521;28;20501;-65
2022/03/14 11:23:43;;;;;;;25.73;10.20;;;9.10;99.90;;;;;;5105173;28;20040;-65
2022/03/14 11:26:11;;;;;;;20.85;9.10;;;9.10;99.90;;;;;;5104060;28;20293;-64
2022/03/14 11:28:40;;;;;;;26.35;10.43;;;9.10;99.90;;;;;;5104770;28;20059;-64
2022/03/14 11:31:06;;;;;;;20.85;10.07;;;9.10;99.90;;;;;;5104710;28;20099;-64
2022/03/14 11:33:35;;;;;;;28.13;9.18;;;9.10;99.90;;;;;;5104830;28;20051;-64
2022/03/14 11:36:05;;;;;;;19.55;8.63;;;9.10;99.90;;;;;;5104182;28;20051;-64
2022/03/14 11:38:31;;;;;;;20.38;10.15;;;9.10;99.90;;;;;;5103505;28;20048;-64
2022/03/14 11:40:58;;;;;;;23.77;10.65;;;9.10;99.90;;;;;;5104354;28;20039;-64
2022/03/14 11:43:24;;;;;;;20.23;9.55;;;9.10;99.90;;;;;;5104727;28;20393;-64
2022/03/14 11:45:51;;;;;;;23.92;10.25;;;9.20;99.90;;;;;;5103868;28;20093;-64
2022/03/14 11:48:18;;;;;;;24.13;10.35;;;9.20;99.90;;;;;;5104541;28;20088;-64
2022/03/14 11:50:57;;;;;;;21.97;8.47;;;9.30;99.90;;;;;;5103137;28;20617;-65
2022/03/14 11:53:35;;;;;;;18.50;9.80;;;9.30;99.90;;;;;;5103401;28;20123;-64
2022/03/14 11:56:05;;;;;;;28.60;11.15;;;9.30;99.90;;;;;;5104114;28;20064;-64
2022/03/14 11:58:33;;;;;;;30.90;10.95;;;9.30;99.90;;;;;;5104633;28;20036;-64
2022/03/14 12:00:59;;;;;;;22.98;10.27;;;9.30;99.90;;;;;;5103043;28;20076;-64
2022/03/14 12:03:41;;;;;;;23.38;9.68;;;9.30;99.90;;;;;;5102992;28;20043;-64
2022/03/14 12:06:08;;;;;;;21.58;9.82;;;9.30;99.90;;;;;;5102548;28;20063;-64
2022/03/14 12:08:36;;;;;;;17.23;8.82;;;9.40;99.90;;;;;;5104718;28;20449;-65
2022/03/14 12:11:23;;;;;;;20.30;9.88;;;9.50;99.90;;;;;;5103755;28;20055;-64
2022/03/14 12:13:49;;;;;;;25.08;9.82;;;9.50;99.90;;;;;;5104022;28;20069;-63
2022/03/14 12:16:38;;;;;;;19.13;8.77;;;9.50;99.90;;;;;;5103009;28;20044;-64
2022/03/14 12:19:28;;;;;;;18.25;9.30;;;9.60;99.90;;;;;;5104314;28;20047;-64
2022/03/14 12:21:55;;;;;;;20.58;9.18;;;9.60;99.90;;;;;;5103696;28;20044;-65
2022/03/14 12:24:45;;;;;;;23.60;9.13;;;9.60;99.90;;;;;;5104349;28;20044;-64
2022/03/14 12:27:30;;;;;;;22.08;8.90;;;9.60;99.90;;;;;;5104280;28;20040;-64
2022/03/14 12:29:57;;;;;;;18.95;9.48;;;9.60;99.90;;;;;;5104411;28;20075;-64
2022/03/14 12:32:44;;;;;;;24.92;10.48;;;9.60;99.90;;;;;;5104236;28;20052;-64
2022/03/14 12:35:27;;;;;;;17.35;10.30;;;9.60;99.90;;;;;;5104319;28;20048;-65
2022/03/14 12:37:56;;;;;;;26.85;10.40;;;9.60;99.90;;;;;;5103630;28;20052;-64
2022/03/14 12:40:22;;;;;;;22.17;11.65;;;9.70;99.90;;;;;;5103822;28;20135;-64
2022/03/14 12:43:12;;;;;;;22.85;11.25;;;9.80;99.90;;;;;;5102699;28;20068;-64
2022/03/14 12:45:40;;;;;;;27.20;12.85;;;9.80;99.90;;;;;;5104093;28;20048;-64
2022/03/14 12:48:17;;;;;;;;;;;9.90;99.90;;;;;;5104547;28;20052;-64
2022/03/14 12:50:43;;;;;;;28.10;13.05;;;9.90;99.90;;;;;;5103914;28;19927;-65
2022/03/14 12:53:30;;;;;;;23.40;11.40;;;10.00;99.90;;;;;;5103346;28;20059;-64